Time;durP1;ratioP1;P1;durP2;ratioP2;P2;SDS_P1;SDS_P2;PMS_P1;PMS_P2;Temp;Humidity;BMP_temperature;BMP_pressure;BME280_temperature;BME280_humidity;BME280_pressure;Samples;Min_cycle;Max_cycle;Signal;HPM_P1;HPM_P2
2022/07/25 00:01:55;;;;;;;13.95;10.85;;;22.50;66.70;;;;;;5062306;28;20025;-73
2022/07/25 00:04:21;;;;;;;15.10;10.55;;;22.40;66.80;;;;;;5063273;28;20040;-73
2022/07/25 00:06:47;;;;;;;12.38;9.38;;;22.40;66.70;;;;;;5061432;28;20032;-72
2022/07/25 00:09:12;;;;;;;12.63;9.55;;;22.40;66.90;;;;;;5063564;28;20167;-73
2022/07/25 00:11:38;;;;;;;13.95;10.25;;;22.40;67.10;;;;;;5060912;28;20117;-73
2022/07/25 00:14:04;;;;;;;12.95;9.77;;;22.40;66.90;;;;;;5061958;28;20483;-73
2022/07/25 00:16:30;;;;;;;12.35;9.45;;;22.30;66.90;;;;;;5063197;28;20025;-72
2022/07/25 00:18:56;;;;;;;11.68;8.50;;;22.30;67.10;;;;;;5060811;28;20048;-73
2022/07/25 00:21:22;;;;;;;13.75;9.77;;;22.30;67.10;;;;;;5062661;28;20028;-73
2022/07/25 00:23:47;;;;;;;11.98;9.40;;;22.20;67.10;;;;;;5062704;28;20036;-73
2022/07/25 00:26:13;;;;;;;14.57;9.48;;;22.20;67.30;;;;;;5060881;28;20028;-73
2022/07/25 00:28:39;;;;;;;13.57;9.73;;;22.20;67.20;;;;;;5063989;28;20032;-73
2022/07/25 00:31:04;;;;;;;14.65;9.38;;;22.20;67.10;;;;;;5058179;28;20462;-73
2022/07/25 00:33:30;;;;;;;13.95;10.25;;;22.20;67.00;;;;;;5061964;28;20036;-73
2022/07/25 00:35:56;;;;;;;13.75;10.07;;;22.10;67.30;;;;;;5060168;28;20036;-73
2022/07/25 00:38:22;;;;;;;13.32;10.57;;;22.10;67.50;;;;;;5062298;28;20787;-73
2022/07/25 00:40:47;;;;;;;12.93;9.30;;;22.10;67.70;;;;;;5061782;28;20040;-73
2022/07/25 00:43:13;;;;;;;10.95;8.95;;;22.10;67.70;;;;;;5060778;28;20037;-73
2022/07/25 00:45:39;;;;;;;12.38;10.05;;;22.10;67.80;;;;;;5066242;28;20037;-73
2022/07/25 00:48:07;;;;;;;12.77;10.07;;;22.00;67.90;;;;;;5059477;28;20025;-73
2022/07/25 00:50:33;;;;;;;12.27;10.82;;;22.00;67.90;;;;;;5059967;28;20039;-73
2022/07/25 00:52:58;;;;;;;13.02;9.57;;;22.00;68.00;;;;;;5062005;28;21805;-73
2022/07/25 00:55:24;;;;;;;15.18;9.73;;;22.00;68.10;;;;;;5061740;28;20033;-73
2022/07/25 00:57:50;;;;;;;12.48;9.38;;;21.90;68.20;;;;;;5060968;28;20360;-73
2022/07/25 01:00:16;;;;;;;15.30;9.63;;;21.80;68.40;;;;;;5065189;28;20104;-73
2022/07/25 01:02:43;;;;;;;14.40;9.52;;;21.80;68.60;;;;;;5058220;28;20029;-73
2022/07/25 01:05:09;;;;;;;11.82;9.20;;;21.80;68.80;;;;;;5060867;28;20032;-73
2022/07/25 01:07:36;;;;;;;12.93;9.75;;;21.80;68.80;;;;;;5059692;28;20033;-73
2022/07/25 01:10:02;;;;;;;13.50;9.30;;;21.80;68.90;;;;;;5061619;28;20063;-73
2022/07/25 01:12:28;;;;;;;13.25;8.82;;;21.80;69.10;;;;;;5063694;28;20025;-73
2022/07/25 01:14:54;;;;;;;13.05;9.50;;;21.80;69.10;;;;;;5059888;28;20424;-74
2022/07/25 01:17:19;;;;;;;10.95;9.10;;;21.80;69.10;;;;;;5059536;28;20487;-73
2022/07/25 01:19:46;;;;;;;11.85;9.10;;;21.70;69.10;;;;;;5060753;28;20127;-73
2022/07/25 01:22:11;;;;;;;12.32;9.10;;;21.70;69.30;;;;;;5059964;28;20032;-74
2022/07/25 01:24:38;;;;;;;12.55;9.13;;;21.70;69.50;;;;;;5060709;28;20052;-73
2022/07/25 01:27:04;;;;;;;12.35;10.07;;;21.70;69.60;;;;;;5059865;28;20522;-73
2022/07/25 01:29:30;;;;;;;12.30;9.25;;;21.60;69.60;;;;;;5061683;28;20028;-73
2022/07/25 01:31:55;;;;;;;11.05;9.55;;;21.60;69.80;;;;;;5060070;28;20849;-73
2022/07/25 01:34:21;;;;;;;12.02;10.05;;;21.60;70.10;;;;;;5062062;28;20712;-73
2022/07/25 01:36:47;;;;;;;12.10;9.13;;;21.60;70.10;;;;;;5060868;28;20367;-73
2022/07/25 01:39:13;;;;;;;12.07;8.98;;;21.50;70.10;;;;;;5059178;28;20029;-73
2022/07/25 01:41:39;;;;;;;12.43;9.15;;;21.50;70.20;;;;;;5073210;28;20039;-73
2022/07/25 01:44:04;;;;;;;13.38;10.13;;;21.50;70.10;;;;;;5067967;28;20151;-73
2022/07/25 01:46:30;;;;;;;11.15;9.30;;;21.60;70.10;;;;;;5061231;28;20078;-74
2022/07/25 01:48:56;;;;;;;11.43;8.65;;;21.60;70.30;;;;;;5060926;28;20075;-73
2022/07/25 01:51:21;;;;;;;12.60;9.45;;;21.50;70.30;;;;;;5061541;28;20028;-73
2022/07/25 01:53:47;;;;;;;10.48;8.07;;;21.40;70.30;;;;;;5058919;28;20491;-73
2022/07/25 01:56:13;;;;;;;11.63;8.50;;;21.40;70.50;;;;;;5058732;28;20550;-73
2022/07/25 01:58:38;;;;;;;11.45;7.90;;;21.40;70.50;;;;;;5060689;28;20036;-73
2022/07/25 02:01:04;;;;;;;13.88;8.98;;;21.30;70.60;;;;;;5058797;28;20079;-73
2022/07/25 02:03:30;;;;;;;13.85;8.35;;;21.30;70.20;;;;;;5058572;28;20048;-74
2022/07/25 02:06:04;;;;;;;13.07;8.45;;;21.20;70.10;;;;;;5061795;28;20025;-73
2022/07/25 02:08:30;;;;;;;11.77;7.85;;;21.20;69.80;;;;;;5058491;28;20071;-73
2022/07/25 02:10:57;;;;;;;9.50;7.55;;;21.20;69.70;;;;;;5061466;28;20052;-73
2022/07/25 02:13:23;;;;;;;10.05;6.72;;;21.10;69.50;;;;;;5058397;28;20381;-73
2022/07/25 02:15:48;;;;;;;10.80;6.80;;;21.10;67.90;;;;;;5060682;28;20028;-73
2022/07/25 02:18:14;;;;;;;8.95;6.18;;;21.10;67.30;;;;;;5059525;28;20025;-73
2022/07/25 02:20:40;;;;;;;9.70;6.40;;;21.10;66.80;;;;;;5060531;28;20417;-73
2022/07/25 02:23:06;;;;;;;10.10;5.53;;;21.10;66.50;;;;;;5056982;28;20032;-73
2022/07/25 02:25:32;;;;;;;11.15;5.30;;;21.20;65.50;;;;;;5057757;28;20037;-73
2022/07/25 02:27:58;;;;;;;9.30;5.53;;;21.20;64.70;;;;;;5059672;28;20380;-73
2022/07/25 02:30:24;;;;;;;10.35;5.53;;;21.20;64.40;;;;;;5058989;28;20491;-73
2022/07/25 02:32:50;;;;;;;9.50;5.32;;;21.20;63.80;;;;;;5056608;28;20064;-73
2022/07/25 02:35:16;;;;;;;10.00;6.22;;;21.20;63.70;;;;;;5062373;28;20058;-73
2022/07/25 02:37:42;;;;;;;7.78;5.40;;;21.20;63.40;;;;;;5058863;28;20036;-73
2022/07/25 02:40:08;;;;;;;8.43;4.63;;;21.20;63.10;;;;;;5058537;28;20036;-73
2022/07/25 02:42:34;;;;;;;9.93;4.78;;;21.30;62.90;;;;;;5059328;28;20116;-73
2022/07/25 02:45:00;;;;;;;6.95;4.22;;;21.20;62.40;;;;;;5061058;28;20029;-72
2022/07/25 02:47:25;;;;;;;7.57;4.40;;;21.20;62.30;;;;;;5058250;28;21748;-73
2022/07/25 02:49:51;;;;;;;7.72;4.55;;;21.20;62.20;;;;;;5061325;28;20032;-73
2022/07/25 02:52:17;;;;;;;7.63;4.60;;;21.30;62.10;;;;;;5060145;28;20071;-73
2022/07/25 02:54:42;;;;;;;9.13;5.00;;;21.30;62.00;;;;;;5061494;28;20116;-73
2022/07/25 02:57:08;;;;;;;8.05;4.50;;;21.30;61.80;;;;;;5059086;28;20039;-73
2022/07/25 02:59:33;;;;;;;9.05;4.40;;;21.30;62.00;;;;;;5059955;28;20043;-74
2022/07/25 03:01:59;;;;;;;8.88;4.55;;;21.20;62.00;;;;;;5058140;28;20027;-73
2022/07/25 03:04:25;;;;;;;8.00;4.88;;;21.20;62.00;;;;;;5059105;28;20469;-73
2022/07/25 03:06:51;;;;;;;6.80;4.40;;;21.10;62.10;;;;;;5059421;28;20041;-73
2022/07/25 03:09:16;;;;;;;7.00;4.40;;;21.10;62.20;;;;;;5059171;28;20068;-74
2022/07/25 03:11:42;;;;;;;7.60;4.45;;;21.10;62.30;;;;;;5061934;28;20635;-73
2022/07/25 03:14:08;;;;;;;7.30;4.35;;;21.10;62.40;;;;;;5055714;28;20036;-73
2022/07/25 03:16:33;;;;;;;7.88;4.47;;;21.00;62.60;;;;;;5060301;28;20036;-73
2022/07/25 03:18:59;;;;;;;7.32;4.93;;;21.00;62.70;;;;;;5060811;28;20059;-73
2022/07/25 03:21:25;;;;;;;7.65;4.82;;;21.00;62.70;;;;;;5059247;28;20059;-74
2022/07/25 03:23:50;;;;;;;8.95;4.70;;;21.00;62.80;;;;;;5060134;28;20064;-73
2022/07/25 03:26:16;;;;;;;7.95;5.15;;;20.90;62.70;;;;;;5054660;28;20269;-73
2022/07/25 03:28:42;;;;;;;10.07;4.53;;;21.00;62.90;;;;;;5059866;28;20371;-73
2022/07/25 03:31:07;;;;;;;9.13;5.25;;;20.90;63.00;;;;;;5056383;28;20419;-73
2022/07/25 03:33:33;;;;;;;8.52;4.78;;;20.80;63.00;;;;;;5056513;28;20078;-73
2022/07/25 03:35:59;;;;;;;8.18;4.45;;;20.80;62.90;;;;;;5063077;28;20033;-73
2022/07/25 03:38:25;;;;;;;7.40;4.38;;;20.70;62.90;;;;;;5065066;28;20090;-73
2022/07/25 03:40:50;;;;;;;8.23;4.57;;;20.70;62.70;;;;;;5060276;28;20537;-73
2022/07/25 03:43:16;;;;;;;8.65;4.53;;;20.60;62.90;;;;;;5057351;28;20043;-73
2022/07/25 03:45:41;;;;;;;6.85;4.03;;;20.60;63.30;;;;;;5064319;28;20050;-73
2022/07/25 03:48:07;;;;;;;9.15;3.95;;;20.50;64.40;;;;;;5063239;28;20041;-75
2022/07/25 03:50:33;;;;;;;8.40;3.50;;;20.50;64.90;;;;;;5061540;28;20037;-73
2022/07/25 03:52:58;;;;;;;8.90;4.10;;;20.40;65.30;;;;;;5063964;28;20051;-73
2022/07/25 03:55:24;;;;;;;7.32;3.70;;;20.40;65.60;;;;;;5061839;28;20032;-73
2022/07/25 03:57:50;;;;;;;7.38;4.07;;;20.30;66.00;;;;;;5058309;28;20056;-73
2022/07/25 04:00:16;;;;;;;6.75;3.47;;;20.30;66.20;;;;;;5061597;28;20028;-73
2022/07/25 04:02:42;;;;;;;7.18;3.53;;;20.30;66.30;;;;;;5061688;28;20559;-74
2022/07/25 04:05:08;;;;;;;6.45;3.35;;;20.20;66.50;;;;;;5061246;28;20051;-73
2022/07/25 04:07:35;;;;;;;7.47;3.50;;;20.30;66.20;;;;;;5063797;28;20032;-73
2022/07/25 04:10:00;;;;;;;10.35;3.60;;;20.30;66.10;;;;;;5063989;28;20048;-73
2022/07/25 04:12:26;;;;;;;8.25;3.35;;;20.20;66.20;;;;;;5063719;28;20032;-73
2022/07/25 04:14:52;;;;;;;10.68;4.05;;;20.20;66.00;;;;;;5062544;28;20041;-73
2022/07/25 04:17:18;;;;;;;8.43;3.95;;;20.10;66.00;;;;;;5060096;28;20261;-73
2022/07/25 04:19:43;;;;;;;7.50;3.78;;;20.20;66.20;;;;;;5061868;28;20056;-73
2022/07/25 04:22:09;;;;;;;8.20;4.13;;;20.20;66.40;;;;;;5053386;28;20033;-73
2022/07/25 04:24:35;;;;;;;7.22;3.88;;;20.20;66.50;;;;;;5062086;28;20488;-73
2022/07/25 04:27:00;;;;;;;9.10;4.00;;;20.20;66.50;;;;;;5061900;28;20041;-73
2022/07/25 04:29:26;;;;;;;8.27;4.18;;;20.20;67.20;;;;;;5064979;28;20454;-74
2022/07/25 04:31:52;;;;;;;7.43;3.50;;;20.20;68.20;;;;;;5060600;28;20036;-74
2022/07/25 04:34:17;;;;;;;9.07;3.50;;;20.10;68.40;;;;;;5063857;28;20045;-74
2022/07/25 04:36:43;;;;;;;7.78;4.00;;;20.20;68.50;;;;;;5060257;28;20629;-74
2022/07/25 04:39:09;;;;;;;9.70;3.97;;;20.20;68.70;;;;;;5057887;28;20455;-73
2022/07/25 04:41:34;;;;;;;8.57;3.70;;;20.20;69.10;;;;;;5060302;28;20045;-74
2022/07/25 04:44:00;;;;;;;9.65;3.83;;;20.20;69.50;;;;;;5060669;28;20049;-73
2022/07/25 04:46:25;;;;;;;7.13;3.33;;;20.30;69.50;;;;;;5061828;28;20029;-74
2022/07/25 04:48:51;;;;;;;6.65;3.45;;;20.30;69.80;;;;;;5060404;28;20033;-74
2022/07/25 04:51:17;;;;;;;9.32;3.53;;;20.40;69.90;;;;;;5057877;28;20068;-73
2022/07/25 04:53:43;;;;;;;11.20;4.03;;;20.40;70.00;;;;;;5061466;28;20040;-73
2022/07/25 04:56:09;;;;;;;10.00;3.53;;;20.30;70.10;;;;;;5059528;28;20045;-73
2022/07/25 04:58:35;;;;;;;7.82;3.60;;;20.30;70.00;;;;;;5061411;28;20341;-74
2022/07/25 05:01:01;;;;;;;7.05;3.50;;;20.30;69.90;;;;;;5061268;28;20348;-74
2022/07/25 05:03:26;;;;;;;6.97;3.22;;;20.30;69.60;;;;;;5060955;28;20051;-73
2022/07/25 05:05:52;;;;;;;5.93;3.10;;;20.30;69.50;;;;;;5062135;28;20028;-74
2022/07/25 05:08:18;;;;;;;8.50;3.90;;;20.40;69.00;;;;;;5059625;28;20044;-73
2022/07/25 05:10:43;;;;;;;11.30;3.80;;;20.40;69.00;;;;;;5062445;28;20045;-74
2022/07/25 05:13:09;;;;;;;8.73;3.72;;;20.40;69.00;;;;;;5060590;28;20040;-74
2022/07/25 05:15:35;;;;;;;10.90;4.50;;;20.50;68.80;;;;;;5059783;28;20043;-74
2022/07/25 05:18:01;;;;;;;8.18;3.83;;;20.60;69.00;;;;;;5061381;28;20035;-73
2022/07/25 05:20:27;;;;;;;9.60;4.15;;;20.60;69.00;;;;;;5069151;28;20067;-74
2022/07/25 05:22:53;;;;;;;9.20;4.28;;;20.60;69.00;;;;;;5059493;28;20056;-73
2022/07/25 05:25:19;;;;;;;13.23;4.75;;;20.60;69.50;;;;;;5057053;28;20758;-74
2022/07/25 05:27:45;;;;;;;9.65;4.43;;;20.60;69.90;;;;;;5061806;28;20391;-74
2022/07/25 05:30:12;;;;;;;9.52;4.32;;;20.60;70.30;;;;;;5060531;28;20029;-74
2022/07/25 05:32:38;;;;;;;10.57;4.30;;;20.60;70.80;;;;;;5060033;28;20115;-73
2022/07/25 05:35:06;;;;;;;9.02;4.45;;;20.60;70.90;;;;;;5060910;28;20047;-74
2022/07/25 05:37:33;;;;;;;9.63;4.20;;;20.60;71.30;;;;;;5070802;28;20039;-74
2022/07/25 05:39:58;;;;;;;10.52;4.85;;;20.60;71.20;;;;;;5060334;28;20062;-73
2022/07/25 05:42:24;;;;;;;14.10;5.85;;;20.60;72.00;;;;;;5059923;28;20469;-73
2022/07/25 05:44:50;;;;;;;12.63;5.32;;;20.60;72.70;;;;;;5061266;28;20351;-74
2022/07/25 05:47:16;;;;;;;12.57;5.70;;;20.60;73.10;;;;;;5059384;28;21171;-73
2022/07/25 05:49:41;;;;;;;11.18;5.38;;;20.90;72.60;;;;;;5061343;28;20111;-73
2022/07/25 05:52:07;;;;;;;12.63;5.22;;;20.80;73.10;;;;;;5059071;28;20439;-73
2022/07/25 05:54:33;;;;;;;11.13;5.40;;;20.90;73.20;;;;;;5059501;28;20109;-73
2022/07/25 05:57:00;;;;;;;9.93;5.10;;;21.00;73.30;;;;;;5060410;28;20033;-74
2022/07/25 05:59:26;;;;;;;9.57;5.63;;;21.00;73.60;;;;;;5061776;28;20476;-73
2022/07/25 06:01:51;;;;;;;11.07;5.30;;;21.20;73.00;;;;;;5059140;28;20036;-73
2022/07/25 06:04:17;;;;;;;10.85;5.38;;;21.30;72.20;;;;;;5061135;28;20113;-73
2022/07/25 06:06:49;;;;;;;11.65;5.20;;;21.30;72.20;;;;;;5059663;28;20537;-74
2022/07/25 06:09:16;;;;;;;11.82;4.82;;;21.40;72.30;;;;;;5058977;28;20064;-74
2022/07/25 06:11:41;;;;;;;11.48;5.38;;;21.60;72.20;;;;;;5062256;28;20426;-73
2022/07/25 06:14:07;;;;;;;10.77;5.63;;;22.00;70.70;;;;;;5060216;28;20036;-74
2022/07/25 06:16:32;;;;;;;8.35;4.63;;;22.10;69.80;;;;;;5063118;28;20036;-74
2022/07/25 06:18:58;;;;;;;7.55;4.00;;;22.10;70.20;;;;;;5066450;28;20032;-73
2022/07/25 06:21:23;;;;;;;11.25;4.60;;;22.20;70.10;;;;;;5062052;28;20368;-74
2022/07/25 06:23:49;;;;;;;9.85;4.90;;;22.40;69.90;;;;;;5062008;28;20040;-74
2022/07/25 06:26:15;;;;;;;8.57;4.20;;;22.40;69.90;;;;;;5062234;28;20062;-74
2022/07/25 06:28:40;;;;;;;12.00;5.07;;;22.30;70.10;;;;;;5060260;28;20036;-74
2022/07/25 06:31:06;;;;;;;9.85;4.13;;;22.30;70.20;;;;;;5058994;28;20491;-74
2022/07/25 06:33:31;;;;;;;11.90;4.65;;;22.30;71.30;;;;;;5062275;28;20047;-74
2022/07/25 06:35:57;;;;;;;11.00;4.15;;;22.50;70.80;;;;;;5058840;28;20051;-74
2022/07/25 06:38:23;;;;;;;7.78;3.90;;;22.70;69.90;;;;;;5059092;28;20036;-74
2022/07/25 06:40:48;;;;;;;9.05;4.50;;;22.80;69.40;;;;;;5059956;28;20040;-74
2022/07/25 06:43:14;;;;;;;10.52;4.40;;;22.80;69.00;;;;;;5059106;28;20041;-74
2022/07/25 06:45:41;;;;;;;7.80;3.38;;;23.00;68.30;;;;;;5060550;28;20526;-74
2022/07/25 06:48:07;;;;;;;9.95;3.92;;;23.30;67.90;;;;;;5060273;28;20476;-74
2022/07/25 06:50:33;;;;;;;9.43;3.67;;;23.60;67.00;;;;;;5060161;28;20036;-74
2022/07/25 06:52:58;;;;;;;9.70;3.47;;;23.80;66.00;;;;;;5062118;28;20114;-75
2022/07/25 06:55:24;;;;;;;8.60;3.13;;;24.10;65.30;;;;;;5059469;28;20049;-74
2022/07/25 06:57:49;;;;;;;10.13;3.05;;;24.10;65.90;;;;;;5063162;28;20119;-74
2022/07/25 07:00:15;;;;;;;8.35;2.83;;;23.80;66.90;;;;;;5061634;28;20476;-74
2022/07/25 07:02:55;;;;;;;8.20;3.13;;;23.80;66.70;;;;;;5063601;28;20378;-74
2022/07/25 07:05:22;;;;;;;7.93;3.05;;;23.60;68.40;;;;;;5058311;28;20406;-74
2022/07/25 07:07:48;;;;;;;7.38;2.45;;;23.30;68.50;;;;;;5057463;28;20068;-74
2022/07/25 07:10:15;;;;;;;9.60;2.97;;;22.80;68.80;;;;;;5059333;28;20326;-74
2022/07/25 07:12:41;;;;;;;6.72;2.40;;;22.70;69.90;;;;;;5063719;28;20050;-74
2022/07/25 07:15:07;;;;;;;7.40;2.30;;;22.60;69.20;;;;;;5060470;28;20046;-74
2022/07/25 07:17:32;;;;;;;10.07;3.20;;;22.40;69.50;;;;;;5057748;28;20059;-74
2022/07/25 07:19:58;;;;;;;8.10;2.63;;;22.60;69.50;;;;;;5063156;28;20053;-74
2022/07/25 07:22:24;;;;;;;8.07;2.50;;;22.80;68.60;;;;;;5063271;28;20036;-74
2022/07/25 07:24:49;;;;;;;9.02;2.78;;;22.80;67.60;;;;;;5062957;28;20047;-74
2022/07/25 07:27:15;;;;;;;8.00;2.53;;;23.00;67.40;;;;;;5059878;28;20119;-74
2022/07/25 07:29:41;;;;;;;6.28;3.22;;;23.20;66.30;;;;;;5062528;28;20050;-74
2022/07/25 07:32:06;;;;;;;9.05;2.95;;;23.20;65.40;;;;;;5062767;28;20035;-74
2022/07/25 07:34:32;;;;;;;7.85;2.88;;;22.90;66.80;;;;;;5063318;28;20357;-74
2022/07/25 07:36:58;;;;;;;7.30;2.78;;;23.10;66.50;;;;;;5063727;28;20472;-74
2022/07/25 07:39:24;;;;;;;7.63;2.95;;;23.50;66.00;;;;;;5061815;28;20028;-74
2022/07/25 07:41:49;;;;;;;7.32;3.13;;;23.90;64.60;;;;;;5064372;28;20028;-74
2022/07/25 07:44:15;;;;;;;8.70;3.50;;;24.10;63.70;;;;;;5062645;28;20044;-74
2022/07/25 07:46:41;;;;;;;7.88;3.05;;;24.30;63.90;;;;;;5062470;28;20479;-74
2022/07/25 07:49:07;;;;;;;7.78;2.90;;;24.70;62.20;;;;;;5062327;28;20025;-74
2022/07/25 07:51:32;;;;;;;7.35;3.05;;;24.80;60.10;;;;;;5063558;28;20426;-74
2022/07/25 07:56:44;;;;;;;7.05;3.08;;;25.10;57.60;;;;;;5062599;28;20052;-73
2022/07/25 07:59:10;;;;;;;8.23;2.80;;;25.20;56.10;;;;;;5063463;28;20219;-73
2022/07/25 08:01:36;;;;;;;9.88;2.83;;;25.30;55.20;;;;;;5062434;28;20077;-74
2022/07/25 08:04:02;;;;;;;9.38;2.83;;;25.50;55.10;;;;;;5060893;28;20049;-74
2022/07/25 08:06:27;;;;;;;9.63;3.08;;;25.60;54.60;;;;;;5064582;28;20464;-72
2022/07/25 08:08:53;;;;;;;8.63;2.97;;;25.50;55.30;;;;;;5061190;28;20446;-73
2022/07/25 08:11:19;;;;;;;9.32;3.53;;;25.10;56.20;;;;;;5065513;28;20041;-74
2022/07/25 08:13:45;;;;;;;8.98;3.03;;;25.00;55.90;;;;;;5060628;28;20645;-73
2022/07/25 08:16:12;;;;;;;8.40;3.22;;;24.60;57.90;;;;;;5063429;28;20093;-73
2022/07/25 08:18:38;;;;;;;10.18;3.40;;;24.40;58.60;;;;;;5060398;28;20066;-74
2022/07/25 08:21:05;;;;;;;11.13;3.25;;;24.40;58.30;;;;;;5062461;28;20035;-74
2022/07/25 08:23:34;;;;;;;10.55;3.58;;;24.40;58.80;;;;;;5062190;28;20040;-74
2022/07/25 08:26:01;;;;;;;11.27;3.55;;;24.20;59.10;;;;;;5060040;28;20032;-74
2022/07/25 08:28:27;;;;;;;10.20;3.72;;;24.30;59.40;;;;;;5062439;28;20539;-73
2022/07/25 08:30:53;;;;;;;8.77;3.53;;;24.40;59.40;;;;;;5062051;28;20040;-73
2022/07/25 08:33:18;;;;;;;15.65;4.47;;;24.50;59.70;;;;;;5065013;28;20048;-74
2022/07/25 08:35:50;;;;;;;8.93;3.58;;;24.70;59.40;;;;;;5061034;28;20467;-74
2022/07/25 08:38:17;;;;;;;10.48;3.20;;;24.70;59.10;;;;;;5062091;28;20033;-74
2022/07/25 08:40:43;;;;;;;10.65;3.55;;;24.60;58.60;;;;;;5062739;28;20035;-73
2022/07/25 08:43:13;;;;;;;8.93;3.05;;;24.40;59.80;;;;;;5060944;28;20045;-73
2022/07/25 08:46:00;;;;;;;9.15;3.50;;;24.50;59.40;;;;;;5060465;28;20577;-72
2022/07/25 08:48:26;;;;;;;9.68;3.50;;;24.20;59.80;;;;;;5059215;28;20032;-73
2022/07/25 08:50:53;;;;;;;11.15;3.90;;;24.60;59.30;;;;;;5066313;28;20097;-72
2022/07/25 08:53:20;;;;;;;9.25;3.45;;;24.70;58.70;;;;;;5061560;28;20052;-74
2022/07/25 08:55:46;;;;;;;11.18;3.35;;;25.10;57.40;;;;;;5061287;28;20055;-73
2022/07/25 08:58:14;;;;;;;8.95;3.38;;;25.10;57.60;;;;;;5062715;28;20039;-74
2022/07/25 09:00:40;;;;;;;8.75;3.08;;;25.10;58.20;;;;;;5064535;28;20467;-74
2022/07/25 09:03:07;;;;;;;10.40;3.15;;;24.90;57.80;;;;;;5060023;28;20044;-73
2022/07/25 09:05:33;;;;;;;9.02;3.10;;;24.60;58.50;;;;;;5062811;28;20112;-73
2022/07/25 09:08:25;;;;;;;13.57;3.50;;;24.50;58.60;;;;;;5058639;28;20029;-73
2022/07/25 09:10:52;;;;;;;10.00;3.30;;;24.30;58.80;;;;;;5054698;28;20119;-74
2022/07/25 09:13:20;;;;;;;10.13;3.25;;;24.50;59.10;;;;;;5060559;28;20774;-74
2022/07/25 09:15:47;;;;;;;9.63;3.20;;;24.10;59.00;;;;;;5059454;28;20587;-74
2022/07/25 09:18:16;;;;;;;9.93;3.00;;;24.20;58.90;;;;;;5057968;28;20039;-73
2022/07/25 09:20:48;;;;;;;13.98;3.15;;;24.00;59.40;;;;;;5062677;28;20702;-72
2022/07/25 09:23:37;;;;;;;8.07;2.72;;;23.90;59.60;;;;;;5060593;28;20167;-72
2022/07/25 09:26:13;;;;;;;7.72;3.38;;;23.90;59.80;;;;;;5058509;28;20039;-73
2022/07/25 09:28:44;;;;;;;9.70;3.47;;;24.20;59.80;;;;;;5070120;28;20043;-73
2022/07/25 09:31:11;;;;;;;9.50;3.25;;;24.30;59.10;;;;;;5065012;28;20055;-72
2022/07/25 09:33:48;;;;;;;8.63;3.20;;;24.30;59.00;;;;;;5057892;28;20318;-73
2022/07/25 09:36:14;;;;;;;10.07;3.10;;;24.20;59.30;;;;;;5060029;28;20035;-73
2022/07/25 09:38:50;;;;;;;11.43;3.17;;;24.00;58.90;;;;;;5063498;28;20368;-74
2022/07/25 09:41:16;;;;;;;10.45;3.53;;;23.50;60.10;;;;;;5059319;28;20577;-72
2022/07/25 09:43:43;;;;;;;9.88;3.42;;;23.30;61.00;;;;;;5058723;28;20040;-74
2022/07/25 09:46:10;;;;;;;8.27;3.03;;;23.50;61.20;;;;;;5067309;28;20484;-73
2022/07/25 09:48:38;;;;;;;8.55;3.33;;;23.70;60.00;;;;;;5064060;28;20332;-76
2022/07/25 09:51:05;;;;;;;13.15;3.38;;;23.80;59.30;;;;;;5060719;28;20064;-73
2022/07/25 09:53:31;;;;;;;9.98;3.00;;;23.80;59.60;;;;;;5061759;28;20043;-73
2022/07/25 09:55:57;;;;;;;11.25;3.40;;;24.10;59.60;;;;;;5062126;28;20468;-73
2022/07/25 09:58:27;;;;;;;8.13;2.95;;;24.20;59.40;;;;;;5060599;28;20060;-73
2022/07/25 10:01:05;;;;;;;10.25;3.20;;;24.40;58.90;;;;;;5060050;28;20120;-74
2022/07/25 10:03:42;;;;;;;10.02;3.38;;;24.60;58.00;;;;;;5057322;28;20075;-73
2022/07/25 10:06:11;;;;;;;10.52;3.42;;;24.60;57.70;;;;;;5061298;28;20041;-74
2022/07/25 10:08:38;;;;;;;8.88;3.38;;;24.80;56.90;;;;;;5060476;28;20062;-75
2022/07/25 10:11:05;;;;;;;9.05;3.20;;;24.90;57.30;;;;;;5059201;28;20107;-74
2022/07/25 10:13:35;;;;;;;9.45;2.95;;;25.10;56.10;;;;;;5061748;28;20463;-74
2022/07/25 10:16:01;;;;;;;12.30;2.80;;;25.50;55.50;;;;;;5063264;28;20039;-73
2022/07/25 10:18:29;;;;;;;7.60;2.90;;;25.80;54.00;;;;;;5060476;28;20041;-76
2022/07/25 10:21:09;;;;;;;7.47;2.60;;;26.10;54.00;;;;;;5055572;28;20162;-73
2022/07/25 10:23:35;;;;;;;8.35;2.80;;;26.00;53.60;;;;;;5057563;28;20145;-74
2022/07/25 10:26:18;;;;;;;11.38;2.92;;;26.10;53.90;;;;;;5056714;28;20728;-74
2022/07/25 10:28:48;;;;;;;10.48;3.17;;;26.20;52.50;;;;;;5059446;28;20072;-74
2022/07/25 10:31:34;;;;;;;9.57;2.72;;;26.10;52.70;;;;;;5058745;28;20464;-74
2022/07/25 10:34:03;;;;;;;10.55;3.25;;;25.90;53.20;;;;;;5061098;28;20070;-74
2022/07/25 10:36:43;;;;;;;10.77;2.95;;;25.50;54.50;;;;;;5062989;28;20039;-73
2022/07/25 10:39:12;;;;;;;11.45;2.88;;;25.00;54.50;;;;;;5055116;28;20044;-74
2022/07/25 10:41:44;;;;;;;7.93;2.50;;;24.70;55.20;;;;;;5059913;28;20093;-73
2022/07/25 10:44:13;;;;;;;9.85;2.97;;;24.40;55.50;;;;;;5058316;28;20102;-74
2022/07/25 10:46:39;;;;;;;7.90;2.25;;;24.40;55.10;;;;;;5059557;28;20045;-74
2022/07/25 10:49:06;;;;;;;11.90;2.65;;;24.50;54.60;;;;;;5059992;28;20066;-74
2022/07/25 10:51:34;;;;;;;8.77;3.20;;;24.40;54.30;;;;;;5061269;28;20355;-73
2022/07/25 10:54:14;;;;;;;8.10;2.13;;;24.50;55.00;;;;;;5057976;28;20087;-75
2022/07/25 10:56:59;;;;;;;8.15;2.30;;;24.60;53.70;;;;;;5068767;28;20683;-73
2022/07/25 10:59:27;;;;;;;9.48;3.05;;;24.80;53.20;;;;;;5067803;28;20036;-74
2022/07/25 11:01:54;;;;;;;7.57;2.47;;;25.00;53.00;;;;;;5064992;28;20029;-73
2022/07/25 11:04:19;;;;;;;11.07;2.50;;;25.60;50.20;;;;;;5065455;28;20130;-73
2022/07/25 11:06:46;;;;;;;10.70;2.72;;;26.00;49.50;;;;;;5063329;28;20041;-74
2022/07/25 11:09:15;;;;;;;8.23;2.50;;;26.30;48.80;;;;;;5064018;28;20033;-72
2022/07/25 11:11:46;;;;;;;12.80;2.70;;;26.50;48.10;;;;;;5063142;28;20048;-73
2022/07/25 11:14:32;;;;;;;7.43;2.63;;;26.40;48.80;;;;;;5068872;28;20052;-75
2022/07/25 11:17:19;;;;;;;8.30;2.50;;;26.60;47.90;;;;;;5062130;28;20097;-73
2022/07/25 11:19:56;;;;;;;11.23;3.03;;;27.00;48.00;;;;;;5064853;28;20608;-73
2022/07/25 11:22:23;;;;;;;10.27;2.60;;;27.00;47.30;;;;;;5056316;28;20140;-75
2022/07/25 11:24:48;;;;;;;12.50;3.03;;;26.50;48.60;;;;;;5063009;28;20633;-73
2022/07/25 11:27:21;;;;;;;8.90;2.47;;;26.60;47.50;;;;;;5058729;28;20028;-73
2022/07/25 11:29:47;;;;;;;11.95;2.92;;;26.70;46.90;;;;;;5064340;28;20374;-74
2022/07/25 11:32:13;;;;;;;9.60;2.45;;;26.40;48.40;;;;;;5062938;28;20127;-73
2022/07/25 11:34:43;;;;;;;8.88;2.50;;;25.80;49.80;;;;;;5063246;28;20040;-74
2022/07/25 11:37:10;;;;;;;9.13;2.15;;;26.10;49.60;;;;;;5063385;28;20576;-73
2022/07/25 11:39:39;;;;;;;10.82;3.00;;;25.80;49.70;;;;;;5062772;28;20127;-73
2022/07/25 11:42:07;;;;;;;14.07;2.95;;;25.50;50.20;;;;;;5063257;28;20047;-73
2022/07/25 11:44:34;;;;;;;9.13;2.42;;;25.40;50.30;;;;;;5062961;28;20090;-74
2022/07/25 11:47:01;;;;;;;7.70;2.33;;;25.20;50.90;;;;;;5061709;28;20082;-77
2022/07/25 11:49:27;;;;;;;13.15;2.60;;;25.30;51.00;;;;;;5062890;28;21775;-75
2022/07/25 11:51:53;;;;;;;11.52;2.55;;;25.60;49.40;;;;;;5065423;28;20038;-74
2022/07/25 11:54:19;;;;;;;8.85;2.13;;;25.60;48.70;;;;;;5061356;28;20147;-74
2022/07/25 11:56:46;;;;;;;9.05;2.22;;;25.60;48.50;;;;;;5068216;28;20111;-74
2022/07/25 11:59:12;;;;;;;9.10;2.45;;;25.70;48.20;;;;;;5061631;28;20039;-74
2022/07/25 12:01:41;;;;;;;11.95;2.47;;;26.00;47.60;;;;;;5063883;28;20040;-74
2022/07/25 12:04:18;;;;;;;7.88;2.30;;;26.10;47.70;;;;;;5064178;28;20431;-73
2022/07/25 12:06:46;;;;;;;11.18;1.95;;;26.20;46.90;;;;;;5060360;28;20090;-75
2022/07/25 12:09:17;;;;;;;8.13;1.92;;;26.20;47.30;;;;;;5063563;28;20492;-74
2022/07/25 12:11:43;;;;;;;12.30;2.45;;;25.70;46.90;;;;;;5059307;28;20036;-74
2022/07/25 12:14:09;;;;;;;11.30;1.98;;;25.60;47.50;;;;;;5065282;28;20041;-75
2022/07/25 12:16:36;;;;;;;7.88;2.08;;;26.10;45.80;;;;;;5060086;28;20049;-74
2022/07/25 12:19:03;;;;;;;8.18;1.85;;;26.40;45.30;;;;;;5063041;28;20090;-74
2022/07/25 12:21:29;;;;;;;7.63;1.85;;;26.50;44.70;;;;;;5060754;28;20071;-74
2022/07/25 12:23:55;;;;;;;13.65;2.10;;;27.30;44.60;;;;;;5060967;28;20041;-75
2022/07/25 12:26:21;;;;;;;8.27;1.98;;;27.60;42.60;;;;;;5061179;28;20299;-73
2022/07/25 12:28:47;;;;;;;6.15;1.55;;;27.10;43.30;;;;;;5062534;28;20024;-73
2022/07/25 12:31:12;;;;;;;6.32;1.60;;;26.30;45.40;;;;;;5061578;28;20060;-73
2022/07/25 12:33:38;;;;;;;7.82;1.48;;;25.60;47.50;;;;;;5059921;28;20032;-72
2022/07/25 12:36:04;;;;;;;5.25;1.27;;;25.20;47.90;;;;;;5061390;28;20560;-75
2022/07/25 12:38:29;;;;;;;7.10;1.55;;;25.20;47.50;;;;;;5061316;28;20045;-72
2022/07/25 12:40:55;;;;;;;4.90;1.20;;;25.10;47.70;;;;;;5060976;28;20025;-74
2022/07/25 12:43:21;;;;;;;5.70;1.20;;;25.00;48.10;;;;;;5061129;28;20147;-72
2022/07/25 12:45:47;;;;;;;9.85;1.80;;;25.10;46.90;;;;;;5066770;28;20033;-73